sensor_id;sensor_type;location;lat;lon;timestamp;temperature;humidity
33761;DHT22;20084;47.912;19.044;2023-01-31T00:01:23;3.30;99.90
33761;DHT22;20084;47.912;19.044;2023-01-31T00:03:58;3.20;99.90
33761;DHT22;20084;47.912;19.044;2023-01-31T00:06:27;3.20;99.90
33761;DHT22;20084;47.912;19.044;2023-01-31T00:08:54;3.30;99.90
33761;DHT22;20084;47.912;19.044;2023-01-31T00:11:22;3.40;99.90
33761;DHT22;20084;47.912;19.044;2023-01-31T00:13:49;3.40;99.90
33761;DHT22;20084;47.912;19.044;2023-01-31T00:16:16;3.40;99.90
33761;DHT22;20084;47.912;19.044;2023-01-31T00:18:42;3.50;99.90
33761;DHT22;20084;47.912;19.044;2023-01-31T00:21:10;3.50;99.90
33761;DHT22;20084;47.912;19.044;2023-01-31T00:23:37;3.40;99.90
33761;DHT22;20084;47.912;19.044;2023-01-31T00:28:44;3.40;99.90
33761;DHT22;20084;47.912;19.044;2023-01-31T00:31:11;3.40;99.90
33761;DHT22;20084;47.912;19.044;2023-01-31T00:33:38;3.60;99.90
33761;DHT22;20084;47.912;19.044;2023-01-31T00:36:06;3.60;99.90
33761;DHT22;20084;47.912;19.044;2023-01-31T00:38:32;3.70;99.90
33761;DHT22;20084;47.912;19.044;2023-01-31T00:40:58;3.70;99.90
33761;DHT22;20084;47.912;19.044;2023-01-31T00:43:24;3.80;99.90
33761;DHT22;20084;47.912;19.044;2023-01-31T00:45:50;3.70;99.90
33761;DHT22;20084;47.912;19.044;2023-01-31T00:48:15;3.80;99.90
33761;DHT22;20084;47.912;19.044;2023-01-31T00:50:41;3.80;99.90
33761;DHT22;20084;47.912;19.044;2023-01-31T00:53:07;3.90;99.90
33761;DHT22;20084;47.912;19.044;2023-01-31T00:55:32;3.90;99.90
33761;DHT22;20084;47.912;19.044;2023-01-31T00:57:58;3.90;99.90
33761;DHT22;20084;47.912;19.044;2023-01-31T01:00:24;3.90;99.90
33761;DHT22;20084;47.912;19.044;2023-01-31T01:02:49;4.00;99.90
33761;DHT22;20084;47.912;19.044;2023-01-31T01:05:15;3.90;99.90
33761;DHT22;20084;47.912;19.044;2023-01-31T01:07:40;3.80;99.90
33761;DHT22;20084;47.912;19.044;2023-01-31T01:10:07;3.70;99.90
33761;DHT22;20084;47.912;19.044;2023-01-31T01:12:33;3.80;99.90
33761;DHT22;20084;47.912;19.044;2023-01-31T01:14:59;3.70;99.90
33761;DHT22;20084;47.912;19.044;2023-01-31T01:17:24;3.70;99.90
33761;DHT22;20084;47.912;19.044;2023-01-31T01:19:50;3.70;99.90
33761;DHT22;20084;47.912;19.044;2023-01-31T01:22:16;3.70;99.90
33761;DHT22;20084;47.912;19.044;2023-01-31T01:24:42;3.80;99.90
33761;DHT22;20084;47.912;19.044;2023-01-31T01:27:09;3.80;99.90
33761;DHT22;20084;47.912;19.044;2023-01-31T01:29:35;3.80;99.90
33761;DHT22;20084;47.912;19.044;2023-01-31T01:32:01;3.70;99.90
33761;DHT22;20084;47.912;19.044;2023-01-31T01:34:26;3.80;99.90
33761;DHT22;20084;47.912;19.044;2023-01-31T01:36:52;3.80;99.90
33761;DHT22;20084;47.912;19.044;2023-01-31T01:39:18;3.80;99.90
33761;DHT22;20084;47.912;19.044;2023-01-31T01:41:45;3.90;99.90
33761;DHT22;20084;47.912;19.044;2023-01-31T01:44:42;3.80;99.90
33761;DHT22;20084;47.912;19.044;2023-01-31T01:47:25;3.80;99.90
33761;DHT22;20084;47.912;19.044;2023-01-31T01:50:06;3.90;99.90
33761;DHT22;20084;47.912;19.044;2023-01-31T01:53:37;3.90;99.90
33761;DHT22;20084;47.912;19.044;2023-01-31T01:55:38;4.00;99.90
33761;DHT22;20084;47.912;19.044;2023-01-31T01:58:17;4.00;99.90
33761;DHT22;20084;47.912;19.044;2023-01-31T02:00:46;4.00;99.90
33761;DHT22;20084;47.912;19.044;2023-01-31T02:03:13;3.90;99.90
33761;DHT22;20084;47.912;19.044;2023-01-31T02:05:50;4.00;99.90
33761;DHT22;20084;47.912;19.044;2023-01-31T02:08:19;4.00;99.90
33761;DHT22;20084;47.912;19.044;2023-01-31T02:10:54;3.90;99.90
33761;DHT22;20084;47.912;19.044;2023-01-31T02:13:21;3.90;99.90
33761;DHT22;20084;47.912;19.044;2023-01-31T02:15:47;3.90;99.90
33761;DHT22;20084;47.912;19.044;2023-01-31T02:18:13;3.90;99.90
33761;DHT22;20084;47.912;19.044;2023-01-31T02:24:09;3.80;99.90
33761;DHT22;20084;47.912;19.044;2023-01-31T02:41:12;3.90;99.90
33761;DHT22;20084;47.912;19.044;2023-01-31T02:43:52;4.00;99.90
33761;DHT22;20084;47.912;19.044;2023-01-31T02:47:14;4.00;99.90
33761;DHT22;20084;47.912;19.044;2023-01-31T02:49:57;4.10;99.90
33761;DHT22;20084;47.912;19.044;2023-01-31T02:52:57;4.10;99.90
33761;DHT22;20084;47.912;19.044;2023-01-31T02:55:27;4.10;99.90
33761;DHT22;20084;47.912;19.044;2023-01-31T02:58:15;4.10;99.90
33761;DHT22;20084;47.912;19.044;2023-01-31T03:00:44;4.10;99.90
33761;DHT22;20084;47.912;19.044;2023-01-31T03:03:22;4.10;99.90
33761;DHT22;20084;47.912;19.044;2023-01-31T03:14:24;4.10;99.90
33761;DHT22;20084;47.912;19.044;2023-01-31T03:17:11;4.10;99.90
33761;DHT22;20084;47.912;19.044;2023-01-31T03:20:26;4.20;99.90
33761;DHT22;20084;47.912;19.044;2023-01-31T03:23:00;4.10;99.90
33761;DHT22;20084;47.912;19.044;2023-01-31T03:25:31;4.20;99.90
33761;DHT22;20084;47.912;19.044;2023-01-31T03:28:03;4.20;99.90
33761;DHT22;20084;47.912;19.044;2023-01-31T03:30:54;4.20;99.90
33761;DHT22;20084;47.912;19.044;2023-01-31T03:33:25;4.10;99.90
33761;DHT22;20084;47.912;19.044;2023-01-31T03:36:08;4.20;99.90
33761;DHT22;20084;47.912;19.044;2023-01-31T03:38:49;4.10;99.90
33761;DHT22;20084;47.912;19.044;2023-01-31T03:44:08;4.20;99.90
33761;DHT22;20084;47.912;19.044;2023-01-31T03:46:40;4.20;99.90
33761;DHT22;20084;47.912;19.044;2023-01-31T03:49:09;4.20;99.90
33761;DHT22;20084;47.912;19.044;2023-01-31T03:51:41;4.20;99.90
33761;DHT22;20084;47.912;19.044;2023-01-31T03:54:16;4.20;99.90
33761;DHT22;20084;47.912;19.044;2023-01-31T03:56:55;4.20;99.90
33761;DHT22;20084;47.912;19.044;2023-01-31T03:59:28;4.20;99.90
33761;DHT22;20084;47.912;19.044;2023-01-31T04:01:58;4.30;99.90
33761;DHT22;20084;47.912;19.044;2023-01-31T04:06:59;4.20;99.90
33761;DHT22;20084;47.912;19.044;2023-01-31T04:09:25;4.30;99.90
33761;DHT22;20084;47.912;19.044;2023-01-31T04:11:51;4.20;99.90
33761;DHT22;20084;47.912;19.044;2023-01-31T04:14:17;4.10;99.90
33761;DHT22;20084;47.912;19.044;2023-01-31T04:16:43;4.10;99.90
33761;DHT22;20084;47.912;19.044;2023-01-31T04:19:08;4.10;99.90
33761;DHT22;20084;47.912;19.044;2023-01-31T04:21:34;4.00;99.90
33761;DHT22;20084;47.912;19.044;2023-01-31T04:24:00;4.00;99.90
33761;DHT22;20084;47.912;19.044;2023-01-31T04:26:25;4.00;99.90
33761;DHT22;20084;47.912;19.044;2023-01-31T04:28:51;4.00;99.90
33761;DHT22;20084;47.912;19.044;2023-01-31T04:31:17;4.00;99.90
33761;DHT22;20084;47.912;19.044;2023-01-31T04:33:42;4.00;99.90
33761;DHT22;20084;47.912;19.044;2023-01-31T04:36:09;3.90;99.90
33761;DHT22;20084;47.912;19.044;2023-01-31T04:38:35;3.90;99.90
33761;DHT22;20084;47.912;19.044;2023-01-31T04:41:00;3.80;99.90
33761;DHT22;20084;47.912;19.044;2023-01-31T04:43:26;3.80;99.90
33761;DHT22;20084;47.912;19.044;2023-01-31T04:45:52;3.80;99.90
33761;DHT22;20084;47.912;19.044;2023-01-31T04:48:18;3.80;99.90
33761;DHT22;20084;47.912;19.044;2023-01-31T04:50:43;3.80;99.90
33761;DHT22;20084;47.912;19.044;2023-01-31T04:53:09;3.70;99.90
33761;DHT22;20084;47.912;19.044;2023-01-31T04:55:35;3.70;99.90
33761;DHT22;20084;47.912;19.044;2023-01-31T04:58:01;3.70;99.90
33761;DHT22;20084;47.912;19.044;2023-01-31T05:00:27;3.60;99.90
33761;DHT22;20084;47.912;19.044;2023-01-31T05:02:53;3.60;99.90
33761;DHT22;20084;47.912;19.044;2023-01-31T05:05:19;3.50;99.90
33761;DHT22;20084;47.912;19.044;2023-01-31T05:07:45;3.50;99.90
33761;DHT22;20084;47.912;19.044;2023-01-31T05:10:11;3.50;99.90
33761;DHT22;20084;47.912;19.044;2023-01-31T05:12:37;3.60;99.90
33761;DHT22;20084;47.912;19.044;2023-01-31T05:15:03;3.60;99.90
33761;DHT22;20084;47.912;19.044;2023-01-31T05:17:31;3.70;99.90
33761;DHT22;20084;47.912;19.044;2023-01-31T05:19:58;3.80;99.90
33761;DHT22;20084;47.912;19.044;2023-01-31T05:22:24;3.90;99.90
33761;DHT22;20084;47.912;19.044;2023-01-31T05:24:50;3.90;99.90
33761;DHT22;20084;47.912;19.044;2023-01-31T05:27:16;3.80;99.90
33761;DHT22;20084;47.912;19.044;2023-01-31T05:29:42;3.90;99.90
33761;DHT22;20084;47.912;19.044;2023-01-31T05:32:08;3.90;99.90
33761;DHT22;20084;47.912;19.044;2023-01-31T05:34:34;4.00;99.90
33761;DHT22;20084;47.912;19.044;2023-01-31T05:37:00;4.00;99.90
33761;DHT22;20084;47.912;19.044;2023-01-31T05:39:27;3.90;99.90
33761;DHT22;20084;47.912;19.044;2023-01-31T05:41:52;3.90;99.90
33761;DHT22;20084;47.912;19.044;2023-01-31T05:44:18;3.90;99.90
33761;DHT22;20084;47.912;19.044;2023-01-31T05:46:44;4.00;99.90
33761;DHT22;20084;47.912;19.044;2023-01-31T05:49:11;3.90;99.90
33761;DHT22;20084;47.912;19.044;2023-01-31T05:51:37;4.00;99.90
33761;DHT22;20084;47.912;19.044;2023-01-31T05:54:03;4.00;99.90
33761;DHT22;20084;47.912;19.044;2023-01-31T05:56:28;3.90;99.90
33761;DHT22;20084;47.912;19.044;2023-01-31T05:58:54;3.90;99.90
33761;DHT22;20084;47.912;19.044;2023-01-31T06:01:24;3.90;99.90
33761;DHT22;20084;47.912;19.044;2023-01-31T06:03:49;3.90;99.90
33761;DHT22;20084;47.912;19.044;2023-01-31T06:06:15;3.90;99.90
33761;DHT22;20084;47.912;19.044;2023-01-31T06:08:41;3.90;99.90
33761;DHT22;20084;47.912;19.044;2023-01-31T06:11:07;4.00;99.90
33761;DHT22;20084;47.912;19.044;2023-01-31T06:13:35;4.00;99.90
33761;DHT22;20084;47.912;19.044;2023-01-31T06:16:01;3.90;99.90
33761;DHT22;20084;47.912;19.044;2023-01-31T06:18:28;4.00;99.90
33761;DHT22;20084;47.912;19.044;2023-01-31T06:20:53;3.90;99.90
33761;DHT22;20084;47.912;19.044;2023-01-31T06:23:20;3.90;99.90
33761;DHT22;20084;47.912;19.044;2023-01-31T06:25:52;4.00;99.90
33761;DHT22;20084;47.912;19.044;2023-01-31T06:28:19;4.00;99.90
33761;DHT22;20084;47.912;19.044;2023-01-31T06:30:45;3.90;99.90
33761;DHT22;20084;47.912;19.044;2023-01-31T06:33:11;4.00;99.90
33761;DHT22;20084;47.912;19.044;2023-01-31T06:35:37;4.10;99.90
33761;DHT22;20084;47.912;19.044;2023-01-31T06:38:03;4.10;99.90
33761;DHT22;20084;47.912;19.044;2023-01-31T06:40:29;4.00;99.90
33761;DHT22;20084;47.912;19.044;2023-01-31T06:42:56;4.00;99.90
33761;DHT22;20084;47.912;19.044;2023-01-31T06:45:22;4.00;99.90
33761;DHT22;20084;47.912;19.044;2023-01-31T06:47:48;4.00;99.90
33761;DHT22;20084;47.912;19.044;2023-01-31T06:50:13;4.10;99.90
33761;DHT22;20084;47.912;19.044;2023-01-31T06:52:40;4.10;99.90
33761;DHT22;20084;47.912;19.044;2023-01-31T06:55:06;4.00;99.90
33761;DHT22;20084;47.912;19.044;2023-01-31T06:57:32;4.00;99.90
33761;DHT22;20084;47.912;19.044;2023-01-31T06:59:58;4.00;99.90
33761;DHT22;20084;47.912;19.044;2023-01-31T07:02:24;4.10;99.90
33761;DHT22;20084;47.912;19.044;2023-01-31T07:04:50;4.00;99.90
33761;DHT22;20084;47.912;19.044;2023-01-31T07:07:16;4.00;99.90
33761;DHT22;20084;47.912;19.044;2023-01-31T07:09:41;4.10;99.90
33761;DHT22;20084;47.912;19.044;2023-01-31T07:12:07;4.20;99.90
33761;DHT22;20084;47.912;19.044;2023-01-31T07:14:33;4.20;99.90
33761;DHT22;20084;47.912;19.044;2023-01-31T07:16:58;4.20;99.90
33761;DHT22;20084;47.912;19.044;2023-01-31T07:19:24;4.30;99.90
33761;DHT22;20084;47.912;19.044;2023-01-31T07:21:50;4.40;99.90
33761;DHT22;20084;47.912;19.044;2023-01-31T07:24:15;4.40;99.90
33761;DHT22;20084;47.912;19.044;2023-01-31T07:26:41;4.40;99.90
33761;DHT22;20084;47.912;19.044;2023-01-31T07:29:07;4.50;99.90
33761;DHT22;20084;47.912;19.044;2023-01-31T07:31:33;4.50;99.90
33761;DHT22;20084;47.912;19.044;2023-01-31T07:33:59;4.60;99.90
33761;DHT22;20084;47.912;19.044;2023-01-31T07:36:25;4.70;99.90
33761;DHT22;20084;47.912;19.044;2023-01-31T07:38:55;4.70;99.90
33761;DHT22;20084;47.912;19.044;2023-01-31T07:41:25;4.80;99.90
33761;DHT22;20084;47.912;19.044;2023-01-31T07:43:51;4.90;99.90
33761;DHT22;20084;47.912;19.044;2023-01-31T07:46:17;4.70;99.90
33761;DHT22;20084;47.912;19.044;2023-01-31T07:48:43;4.70;99.90
33761;DHT22;20084;47.912;19.044;2023-01-31T07:51:10;4.70;99.90
33761;DHT22;20084;47.912;19.044;2023-01-31T07:53:37;4.70;99.90
33761;DHT22;20084;47.912;19.044;2023-01-31T07:56:12;4.80;99.90
33761;DHT22;20084;47.912;19.044;2023-01-31T07:58:39;4.90;99.90
33761;DHT22;20084;47.912;19.044;2023-01-31T08:01:05;4.90;99.90
33761;DHT22;20084;47.912;19.044;2023-01-31T08:03:50;4.90;99.90
33761;DHT22;20084;47.912;19.044;2023-01-31T08:06:17;4.90;99.90
33761;DHT22;20084;47.912;19.044;2023-01-31T08:08:44;5.10;99.90
33761;DHT22;20084;47.912;19.044;2023-01-31T08:11:10;5.20;99.90
33761;DHT22;20084;47.912;19.044;2023-01-31T08:13:36;5.40;99.90
33761;DHT22;20084;47.912;19.044;2023-01-31T08:16:04;5.40;99.90
33761;DHT22;20084;47.912;19.044;2023-01-31T08:18:30;5.30;99.90
33761;DHT22;20084;47.912;19.044;2023-01-31T08:20:56;5.30;99.90
33761;DHT22;20084;47.912;19.044;2023-01-31T08:23:22;5.20;99.90
33761;DHT22;20084;47.912;19.044;2023-01-31T08:25:48;5.10;99.90
33761;DHT22;20084;47.912;19.044;2023-01-31T08:28:15;5.00;99.90
33761;DHT22;20084;47.912;19.044;2023-01-31T08:30:43;5.00;99.90
33761;DHT22;20084;47.912;19.044;2023-01-31T08:33:10;4.90;99.90
33761;DHT22;20084;47.912;19.044;2023-01-31T08:35:36;5.00;99.90
33761;DHT22;20084;47.912;19.044;2023-01-31T08:38:02;5.00;99.90
33761;DHT22;20084;47.912;19.044;2023-01-31T08:40:28;5.00;99.90
33761;DHT22;20084;47.912;19.044;2023-01-31T08:42:55;5.00;99.90
33761;DHT22;20084;47.912;19.044;2023-01-31T08:45:21;4.90;99.90
33761;DHT22;20084;47.912;19.044;2023-01-31T08:47:47;4.90;99.90
33761;DHT22;20084;47.912;19.044;2023-01-31T08:50:12;4.80;99.90
33761;DHT22;20084;47.912;19.044;2023-01-31T08:52:38;4.80;99.90
33761;DHT22;20084;47.912;19.044;2023-01-31T08:55:04;4.90;99.90
33761;DHT22;20084;47.912;19.044;2023-01-31T08:57:30;5.10;99.90
33761;DHT22;20084;47.912;19.044;2023-01-31T08:59:56;5.30;99.90
33761;DHT22;20084;47.912;19.044;2023-01-31T09:02:22;5.30;99.90
33761;DHT22;20084;47.912;19.044;2023-01-31T09:04:48;5.30;99.90
33761;DHT22;20084;47.912;19.044;2023-01-31T09:07:14;5.40;99.90
33761;DHT22;20084;47.912;19.044;2023-01-31T09:09:39;5.60;99.90
33761;DHT22;20084;47.912;19.044;2023-01-31T09:12:05;5.40;99.90
33761;DHT22;20084;47.912;19.044;2023-01-31T09:14:31;5.50;99.90
33761;DHT22;20084;47.912;19.044;2023-01-31T09:16:57;5.60;99.90
33761;DHT22;20084;47.912;19.044;2023-01-31T09:19:22;5.70;99.90
33761;DHT22;20084;47.912;19.044;2023-01-31T09:21:48;5.70;99.90
33761;DHT22;20084;47.912;19.044;2023-01-31T09:24:14;5.90;99.90
33761;DHT22;20084;47.912;19.044;2023-01-31T09:26:39;5.90;99.90
33761;DHT22;20084;47.912;19.044;2023-01-31T09:29:05;5.90;99.90
33761;DHT22;20084;47.912;19.044;2023-01-31T09:31:32;5.70;99.90
33761;DHT22;20084;47.912;19.044;2023-01-31T09:33:57;5.70;99.90
33761;DHT22;20084;47.912;19.044;2023-01-31T09:36:23;5.90;99.90
33761;DHT22;20084;47.912;19.044;2023-01-31T09:38:56;5.90;99.90
33761;DHT22;20084;47.912;19.044;2023-01-31T09:41:54;5.70;99.90
33761;DHT22;20084;47.912;19.044;2023-01-31T09:44:31;5.80;99.90
33761;DHT22;20084;47.912;19.044;2023-01-31T09:47:13;5.90;99.90
33761;DHT22;20084;47.912;19.044;2023-01-31T09:49:50;5.90;99.90
33761;DHT22;20084;47.912;19.044;2023-01-31T09:52:17;5.80;99.90
33761;DHT22;20084;47.912;19.044;2023-01-31T09:54:44;5.70;99.90
33761;DHT22;20084;47.912;19.044;2023-01-31T10:05:32;5.40;99.90
33761;DHT22;20084;47.912;19.044;2023-01-31T10:08:11;5.40;99.90
33761;DHT22;20084;47.912;19.044;2023-01-31T10:10:42;5.30;99.90
33761;DHT22;20084;47.912;19.044;2023-01-31T10:13:32;5.40;99.90
33761;DHT22;20084;47.912;19.044;2023-01-31T10:18:50;5.40;99.90
33761;DHT22;20084;47.912;19.044;2023-01-31T10:21:22;5.50;99.90
33761;DHT22;20084;47.912;19.044;2023-01-31T10:26:33;5.30;99.90
33761;DHT22;20084;47.912;19.044;2023-01-31T10:29:22;5.30;99.90
33761;DHT22;20084;47.912;19.044;2023-01-31T10:31:57;5.40;99.90
33761;DHT22;20084;47.912;19.044;2023-01-31T10:34:34;5.40;99.90
33761;DHT22;20084;47.912;19.044;2023-01-31T10:39:57;5.30;99.90
33761;DHT22;20084;47.912;19.044;2023-01-31T10:45:05;5.40;99.90
33761;DHT22;20084;47.912;19.044;2023-01-31T10:50:51;5.50;99.90
33761;DHT22;20084;47.912;19.044;2023-01-31T10:53:42;5.50;99.90
33761;DHT22;20084;47.912;19.044;2023-01-31T10:56:18;5.60;99.90
33761;DHT22;20084;47.912;19.044;2023-01-31T10:58:48;5.70;99.90
33761;DHT22;20084;47.912;19.044;2023-01-31T11:01:14;5.80;99.90
33761;DHT22;20084;47.912;19.044;2023-01-31T11:03:49;6.00;99.90
33761;DHT22;20084;47.912;19.044;2023-01-31T11:06:15;6.10;99.90
33761;DHT22;20084;47.912;19.044;2023-01-31T11:08:47;6.10;99.90
33761;DHT22;20084;47.912;19.044;2023-01-31T11:11:16;6.10;99.90
33761;DHT22;20084;47.912;19.044;2023-01-31T11:13:56;6.00;99.90
33761;DHT22;20084;47.912;19.044;2023-01-31T11:16:22;6.00;99.90
33761;DHT22;20084;47.912;19.044;2023-01-31T11:18:49;5.90;99.90
33761;DHT22;20084;47.912;19.044;2023-01-31T11:21:34;5.70;99.90
33761;DHT22;20084;47.912;19.044;2023-01-31T11:24:05;5.70;99.90
33761;DHT22;20084;47.912;19.044;2023-01-31T11:26:36;5.60;99.90
33761;DHT22;20084;47.912;19.044;2023-01-31T11:29:16;5.60;99.90
33761;DHT22;20084;47.912;19.044;2023-01-31T11:31:43;5.50;99.90
33761;DHT22;20084;47.912;19.044;2023-01-31T11:34:25;5.50;99.90
33761;DHT22;20084;47.912;19.044;2023-01-31T11:36:51;5.60;99.90
33761;DHT22;20084;47.912;19.044;2023-01-31T11:39:34;5.70;99.90
33761;DHT22;20084;47.912;19.044;2023-01-31T11:42:16;5.70;99.90
33761;DHT22;20084;47.912;19.044;2023-01-31T11:47:38;5.60;99.90
33761;DHT22;20084;47.912;19.044;2023-01-31T11:50:13;5.70;99.90
33761;DHT22;20084;47.912;19.044;2023-01-31T11:52:43;5.70;99.90
33761;DHT22;20084;47.912;19.044;2023-01-31T11:55:11;5.70;99.90
33761;DHT22;20084;47.912;19.044;2023-01-31T11:57:40;5.70;99.90
33761;DHT22;20084;47.912;19.044;2023-01-31T12:00:27;5.80;99.90
33761;DHT22;20084;47.912;19.044;2023-01-31T12:03:05;5.60;99.90
33761;DHT22;20084;47.912;19.044;2023-01-31T12:05:43;5.40;99.90
33761;DHT22;20084;47.912;19.044;2023-01-31T12:08:38;5.30;99.90
33761;DHT22;20084;47.912;19.044;2023-01-31T12:13:49;5.20;99.90
33761;DHT22;20084;47.912;19.044;2023-01-31T12:16:20;5.30;99.90
33761;DHT22;20084;47.912;19.044;2023-01-31T12:37:42;5.50;99.90
33761;DHT22;20084;47.912;19.044;2023-01-31T12:40:21;5.60;99.90
33761;DHT22;20084;47.912;19.044;2023-01-31T12:43:01;5.80;99.90
33761;DHT22;20084;47.912;19.044;2023-01-31T12:45:51;5.90;99.90
33761;DHT22;20084;47.912;19.044;2023-01-31T12:51:35;6.00;99.90
33761;DHT22;20084;47.912;19.044;2023-01-31T12:54:33;6.00;99.90
33761;DHT22;20084;47.912;19.044;2023-01-31T12:57:32;6.00;99.90
33761;DHT22;20084;47.912;19.044;2023-01-31T13:00:14;5.90;99.90
33761;DHT22;20084;47.912;19.044;2023-01-31T13:05:58;5.80;99.90
33761;DHT22;20084;47.912;19.044;2023-01-31T13:08:27;5.80;99.90
33761;DHT22;20084;47.912;19.044;2023-01-31T13:11:08;5.80;99.90
33761;DHT22;20084;47.912;19.044;2023-01-31T13:14:11;5.70;99.90
33761;DHT22;20084;47.912;19.044;2023-01-31T13:16:40;5.80;99.90
33761;DHT22;20084;47.912;19.044;2023-01-31T13:19:33;5.80;99.90
33761;DHT22;20084;47.912;19.044;2023-01-31T13:22:04;5.80;99.90
33761;DHT22;20084;47.912;19.044;2023-01-31T13:24:36;5.80;99.90
33761;DHT22;20084;47.912;19.044;2023-01-31T13:27:15;5.80;99.90
33761;DHT22;20084;47.912;19.044;2023-01-31T13:29:56;6.00;99.90
33761;DHT22;20084;47.912;19.044;2023-01-31T13:32:38;6.10;99.90
33761;DHT22;20084;47.912;19.044;2023-01-31T13:35:17;6.20;99.90
33761;DHT22;20084;47.912;19.044;2023-01-31T13:37:46;6.10;99.90
33761;DHT22;20084;47.912;19.044;2023-01-31T13:40:28;6.20;99.90
33761;DHT22;20084;47.912;19.044;2023-01-31T13:42:59;6.30;99.90
33761;DHT22;20084;47.912;19.044;2023-01-31T13:45:34;6.30;99.90
33761;DHT22;20084;47.912;19.044;2023-01-31T13:50:58;6.20;99.90
33761;DHT22;20084;47.912;19.044;2023-01-31T13:53:40;6.50;99.90
33761;DHT22;20084;47.912;19.044;2023-01-31T13:56:08;6.80;99.90
33761;DHT22;20084;47.912;19.044;2023-01-31T13:58:35;7.00;99.90
33761;DHT22;20084;47.912;19.044;2023-01-31T14:01:04;7.20;99.90
33761;DHT22;20084;47.912;19.044;2023-01-31T14:07:14;7.00;99.90
33761;DHT22;20084;47.912;19.044;2023-01-31T14:22:29;6.20;99.90
33761;DHT22;20084;47.912;19.044;2023-01-31T14:25:02;6.10;99.90
33761;DHT22;20084;47.912;19.044;2023-01-31T14:30:40;6.20;99.90
33761;DHT22;20084;47.912;19.044;2023-01-31T14:35:59;6.20;99.90
33761;DHT22;20084;47.912;19.044;2023-01-31T14:49:55;5.90;99.90
33761;DHT22;20084;47.912;19.044;2023-01-31T14:57:46;5.70;99.90
33761;DHT22;20084;47.912;19.044;2023-01-31T15:00:24;5.60;99.90
33761;DHT22;20084;47.912;19.044;2023-01-31T15:02:52;5.50;99.90
33761;DHT22;20084;47.912;19.044;2023-01-31T15:08:05;5.40;99.90
33761;DHT22;20084;47.912;19.044;2023-01-31T15:13:49;5.50;99.90
33761;DHT22;20084;47.912;19.044;2023-01-31T15:16:22;5.50;99.90
33761;DHT22;20084;47.912;19.044;2023-01-31T15:18:52;5.60;99.90
33761;DHT22;20084;47.912;19.044;2023-01-31T15:21:31;5.50;99.90
33761;DHT22;20084;47.912;19.044;2023-01-31T15:23:59;5.40;99.90
33761;DHT22;20084;47.912;19.044;2023-01-31T15:26:28;5.40;99.90
33761;DHT22;20084;47.912;19.044;2023-01-31T15:28:56;5.40;99.90
33761;DHT22;20084;47.912;19.044;2023-01-31T15:31:35;5.30;99.90
33761;DHT22;20084;47.912;19.044;2023-01-31T15:34:13;5.20;99.90
33761;DHT22;20084;47.912;19.044;2023-01-31T15:37:07;5.20;99.90
33761;DHT22;20084;47.912;19.044;2023-01-31T15:39:40;5.20;99.90
33761;DHT22;20084;47.912;19.044;2023-01-31T15:42:26;5.30;99.90
33761;DHT22;20084;47.912;19.044;2023-01-31T15:45:10;5.40;99.90
33761;DHT22;20084;47.912;19.044;2023-01-31T15:47:36;5.50;99.90
33761;DHT22;20084;47.912;19.044;2023-01-31T15:50:15;5.60;99.90
33761;DHT22;20084;47.912;19.044;2023-01-31T15:52:42;5.60;99.90
33761;DHT22;20084;47.912;19.044;2023-01-31T15:55:13;5.50;99.90
33761;DHT22;20084;47.912;19.044;2023-01-31T15:58:02;5.50;99.90
33761;DHT22;20084;47.912;19.044;2023-01-31T16:00:34;5.40;99.90
33761;DHT22;20084;47.912;19.044;2023-01-31T16:03:01;5.50;99.90
33761;DHT22;20084;47.912;19.044;2023-01-31T16:05:32;5.50;99.90
33761;DHT22;20084;47.912;19.044;2023-01-31T16:07:59;5.40;99.90
33761;DHT22;20084;47.912;19.044;2023-01-31T16:10:28;5.30;99.90
33761;DHT22;20084;47.912;19.044;2023-01-31T16:12:55;5.30;99.90
33761;DHT22;20084;47.912;19.044;2023-01-31T16:15:29;5.40;99.90
33761;DHT22;20084;47.912;19.044;2023-01-31T16:17:59;5.30;99.90
33761;DHT22;20084;47.912;19.044;2023-01-31T16:20:47;5.30;99.90
33761;DHT22;20084;47.912;19.044;2023-01-31T16:23:36;5.20;99.90
33761;DHT22;20084;47.912;19.044;2023-01-31T16:28:37;5.30;99.90
33761;DHT22;20084;47.912;19.044;2023-01-31T16:31:05;5.30;99.90
33761;DHT22;20084;47.912;19.044;2023-01-31T16:33:32;5.10;99.90
33761;DHT22;20084;47.912;19.044;2023-01-31T16:36:10;5.20;99.90
33761;DHT22;20084;47.912;19.044;2023-01-31T16:38:40;5.00;99.90
33761;DHT22;20084;47.912;19.044;2023-01-31T16:41:08;5.10;99.90
33761;DHT22;20084;47.912;19.044;2023-01-31T16:43:40;5.10;99.90
33761;DHT22;20084;47.912;19.044;2023-01-31T16:46:19;5.10;99.90
33761;DHT22;20084;47.912;19.044;2023-01-31T16:49:13;5.10;99.90
33761;DHT22;20084;47.912;19.044;2023-01-31T16:51:43;5.10;99.90
33761;DHT22;20084;47.912;19.044;2023-01-31T16:54:19;5.10;99.90
33761;DHT22;20084;47.912;19.044;2023-01-31T16:56:47;5.10;99.90
33761;DHT22;20084;47.912;19.044;2023-01-31T16:59:47;5.10;99.90
33761;DHT22;20084;47.912;19.044;2023-01-31T17:02:39;5.10;99.90
33761;DHT22;20084;47.912;19.044;2023-01-31T17:07:59;5.10;99.90
33761;DHT22;20084;47.912;19.044;2023-01-31T17:10:28;5.00;99.90
33761;DHT22;20084;47.912;19.044;2023-01-31T17:13:00;5.10;99.90
33761;DHT22;20084;47.912;19.044;2023-01-31T17:15:26;5.00;99.90
33761;DHT22;20084;47.912;19.044;2023-01-31T17:17:54;5.10;99.90
33761;DHT22;20084;47.912;19.044;2023-01-31T17:20:20;5.10;99.90
33761;DHT22;20084;47.912;19.044;2023-01-31T17:22:47;5.20;99.90
33761;DHT22;20084;47.912;19.044;2023-01-31T17:25:16;5.20;99.90
33761;DHT22;20084;47.912;19.044;2023-01-31T17:27:45;5.30;99.90
33761;DHT22;20084;47.912;19.044;2023-01-31T17:30:12;5.20;99.90
33761;DHT22;20084;47.912;19.044;2023-01-31T17:32:38;5.20;99.90
33761;DHT22;20084;47.912;19.044;2023-01-31T17:35:19;5.20;99.90
33761;DHT22;20084;47.912;19.044;2023-01-31T17:37:45;5.20;99.90
33761;DHT22;20084;47.912;19.044;2023-01-31T17:40:13;5.20;99.90
33761;DHT22;20084;47.912;19.044;2023-01-31T17:42:39;5.20;99.90
33761;DHT22;20084;47.912;19.044;2023-01-31T17:45:17;5.20;99.90
33761;DHT22;20084;47.912;19.044;2023-01-31T17:47:43;5.40;99.90
33761;DHT22;20084;47.912;19.044;2023-01-31T17:50:15;5.60;99.90
33761;DHT22;20084;47.912;19.044;2023-01-31T17:52:41;5.60;99.90
33761;DHT22;20084;47.912;19.044;2023-01-31T17:55:08;5.50;99.90
33761;DHT22;20084;47.912;19.044;2023-01-31T17:57:33;5.50;99.90
33761;DHT22;20084;47.912;19.044;2023-01-31T17:59:59;5.50;99.90
33761;DHT22;20084;47.912;19.044;2023-01-31T18:02:25;5.50;99.90
33761;DHT22;20084;47.912;19.044;2023-01-31T18:04:51;5.50;99.90
33761;DHT22;20084;47.912;19.044;2023-01-31T18:07:17;5.60;99.90
33761;DHT22;20084;47.912;19.044;2023-01-31T18:09:43;5.60;99.90
33761;DHT22;20084;47.912;19.044;2023-01-31T18:12:10;5.60;99.90
33761;DHT22;20084;47.912;19.044;2023-01-31T18:14:36;5.50;99.90